createdAt,value
2022-09-23T00:01:11.155Z,4.20
2022-09-23T00:03:41.453Z,4.10
2022-09-23T00:06:13.293Z,4.15
2022-09-23T00:08:40.913Z,4.11
2022-09-23T00:11:19.607Z,4.16
2022-09-23T00:13:48.891Z,4.13
2022-09-23T00:16:35.766Z,4.04
2022-09-23T00:19:03.694Z,4.06
2022-09-23T00:21:30.558Z,4.01
2022-09-23T00:23:57.102Z,4.03
2022-09-23T00:26:25.243Z,4.06
2022-09-23T00:28:52.603Z,4.01
2022-09-23T00:31:24.866Z,3.98
2022-09-23T00:33:56.660Z,3.96
2022-09-23T00:36:24.481Z,3.98
2022-09-23T00:38:51.096Z,3.96
2022-09-23T00:41:17.911Z,3.93
2022-09-23T00:43:47.393Z,3.89
2022-09-23T00:46:38.882Z,3.93
2022-09-23T00:49:15.369Z,3.88
2022-09-23T00:51:48.769Z,3.89
2022-09-23T00:54:15.398Z,3.83
2022-09-23T00:56:41.887Z,3.68
2022-09-23T00:59:09.663Z,3.83
2022-09-23T01:01:37.497Z,3.81
2022-09-23T01:04:05.955Z,3.73
2022-09-23T01:06:32.902Z,3.71
2022-09-23T01:08:59.497Z,3.74
2022-09-23T01:11:38.111Z,3.73
2022-09-23T01:14:16.989Z,3.77
2022-09-23T01:17:06.758Z,3.66
2022-09-23T01:20:04.218Z,3.73
2022-09-23T01:22:49.547Z,3.62
2022-09-23T01:25:27.138Z,3.60
2022-09-23T01:28:22.218Z,3.67
2022-09-23T01:31:21.150Z,3.68
2022-09-23T01:33:56.882Z,3.61
2022-09-23T01:36:27.368Z,3.63
2022-09-23T01:39:42.134Z,3.59
2022-09-23T01:42:22.601Z,3.61
2022-09-23T01:45:08.878Z,3.60
2022-09-23T01:47:44.930Z,3.58
2022-09-23T01:50:39.915Z,3.63
2022-09-23T01:53:27.534Z,3.64
2022-09-23T01:55:58.931Z,3.68
2022-09-23T01:58:32.089Z,3.63
2022-09-23T02:01:06.249Z,3.66
2022-09-23T02:04:18.494Z,3.67
2022-09-23T02:06:52.451Z,3.66
2022-09-23T02:09:24.855Z,3.53
2022-09-23T02:12:00.274Z,3.48
2022-09-23T02:14:39.187Z,3.41
2022-09-23T02:17:13.053Z,3.42
2022-09-23T02:19:46.164Z,3.37
2022-09-23T02:22:18.597Z,3.33
2022-09-23T02:24:45.588Z,3.25
2022-09-23T02:27:35.075Z,3.21
2022-09-23T02:30:21.994Z,3.31
2022-09-23T02:33:01.062Z,3.16
2022-09-23T02:35:37.304Z,3.29
2022-09-23T02:38:12.504Z,3.21
2022-09-23T02:40:58.734Z,3.19
2022-09-23T02:43:36.176Z,3.24
2022-09-23T02:46:04.538Z,3.20
2022-09-23T02:48:40.648Z,3.18
2022-09-23T02:51:08.451Z,3.11
2022-09-23T02:53:35.139Z,3.06
2022-09-23T02:56:02.628Z,3.07
2022-09-23T02:58:29.935Z,3.06
2022-09-23T03:01:07.755Z,3.10
2022-09-23T03:03:49.568Z,2.96
2022-09-23T03:06:49.943Z,2.91
2022-09-23T03:09:32.265Z,2.99
2022-09-23T03:12:13.096Z,3.00
2022-09-23T03:14:44.589Z,2.97
2022-09-23T03:17:20.969Z,2.95
2022-09-23T03:20:24.769Z,2.91
2022-09-23T03:23:00.895Z,2.86
2022-09-23T03:25:31.624Z,2.84
2022-09-23T03:28:00.917Z,2.83
2022-09-23T03:30:29.284Z,2.84
2022-09-23T03:33:00.176Z,2.80
2022-09-23T03:35:31.128Z,2.83
2022-09-23T03:38:10.190Z,2.85
2022-09-23T03:40:43.564Z,2.74
2022-09-23T03:43:13.873Z,2.70
2022-09-23T03:45:42.613Z,2.66
2022-09-23T03:48:09.472Z,2.63
2022-09-23T03:50:36.194Z,2.66
2022-09-23T03:53:02.687Z,2.56
2022-09-23T03:55:29.097Z,2.55
2022-09-23T03:57:55.717Z,2.54
2022-09-23T04:00:22.304Z,2.51
2022-09-23T04:02:49.856Z,2.54
2022-09-23T04:05:16.573Z,2.57
2022-09-23T04:07:43.201Z,2.54
2022-09-23T04:10:10.956Z,2.53
2022-09-23T04:12:38.155Z,2.53
2022-09-23T04:15:05.204Z,2.63
2022-09-23T04:17:31.658Z,2.67
2022-09-23T04:19:58.150Z,2.57
2022-09-23T04:22:24.671Z,2.55
2022-09-23T04:24:51.291Z,2.49
2022-09-23T04:27:17.758Z,2.48
2022-09-23T04:29:44.210Z,2.58
2022-09-23T04:32:10.779Z,2.53
2022-09-23T04:34:37.305Z,2.57
2022-09-23T04:37:03.686Z,2.72
2022-09-23T04:39:30.154Z,2.70
2022-09-23T04:41:56.563Z,2.74
2022-09-23T04:44:23.043Z,2.62
2022-09-23T04:46:49.621Z,2.72
2022-09-23T04:49:16.532Z,2.74
2022-09-23T04:51:43.558Z,2.59
2022-09-23T04:54:11.815Z,2.62
2022-09-23T04:56:39.664Z,2.65
2022-09-23T04:59:06.992Z,2.60
2022-09-23T05:01:35.082Z,2.73
2022-09-23T05:04:05.208Z,2.60
2022-09-23T05:06:35.790Z,2.62
2022-09-23T05:09:04.874Z,2.76
2022-09-23T05:11:32.019Z,2.80
2022-09-23T05:13:58.814Z,2.83
2022-09-23T05:16:26.713Z,2.89
2022-09-23T05:18:53.915Z,2.87
2022-09-23T05:21:23.382Z,2.96
2022-09-23T05:23:55.209Z,2.98
2022-09-23T05:26:27.573Z,3.02
2022-09-23T05:28:54.577Z,2.93
2022-09-23T05:31:23.987Z,2.80
2022-09-23T05:33:57.289Z,2.80
2022-09-23T05:36:24.777Z,2.90
2022-09-23T05:38:51.909Z,3.03
2022-09-23T05:41:21.363Z,3.05
2022-09-23T05:43:47.806Z,3.17
2022-09-23T05:46:26.242Z,3.13
2022-09-23T05:48:52.697Z,3.06
2022-09-23T05:51:20.740Z,3.31
2022-09-23T05:53:48.454Z,3.50
2022-09-23T05:56:17.654Z,3.48
2022-09-23T05:58:44.708Z,3.56
2022-09-23T06:01:12.829Z,3.62
2022-09-23T06:03:39.699Z,3.46
2022-09-23T06:06:07.299Z,3.11
2022-09-23T06:08:34.527Z,3.32
2022-09-23T06:11:08.150Z,3.62
2022-09-23T06:13:38.071Z,3.77
2022-09-23T06:16:08.001Z,3.86
2022-09-23T06:18:35.715Z,3.83
2022-09-23T06:21:03.012Z,3.36
2022-09-23T06:23:30.158Z,4.12
2022-09-23T06:26:05.399Z,4.65
2022-09-23T06:28:33.782Z,4.93
2022-09-23T06:31:03.234Z,5.06
2022-09-23T06:33:36.778Z,4.98
2022-09-23T06:36:06.259Z,5.48
2022-09-23T06:38:36.556Z,5.46
2022-09-23T06:41:03.382Z,5.95
2022-09-23T06:43:30.505Z,6.13
2022-09-23T06:45:59.124Z,6.08
2022-09-23T06:48:27.003Z,6.45
2022-09-23T06:50:54.376Z,7.04
2022-09-23T06:53:24.683Z,7.24
2022-09-23T06:56:19.796Z,6.31
2022-09-23T06:58:46.831Z,6.54
2022-09-23T07:01:17.459Z,6.95
2022-09-23T07:03:45.672Z,7.35
2022-09-23T07:06:12.330Z,6.78
2022-09-23T07:08:41.801Z,7.38
2022-09-23T07:11:13.404Z,7.13
2022-09-23T07:13:41.282Z,7.41
2022-09-23T07:16:09.039Z,7.15
2022-09-23T07:18:37.321Z,7.16
2022-09-23T07:21:10.354Z,7.39
2022-09-23T07:23:37.760Z,7.55
2022-09-23T07:26:05.643Z,7.55
2022-09-23T07:28:32.214Z,7.80
2022-09-23T07:31:02.199Z,7.67
2022-09-23T07:33:33.288Z,8.07
2022-09-23T07:36:05.350Z,8.14
2022-09-23T07:38:31.947Z,8.20
2022-09-23T07:41:05.163Z,8.03
2022-09-23T07:43:32.474Z,8.26
2022-09-23T07:46:04.494Z,8.19
2022-09-23T07:48:34.267Z,8.63
2022-09-23T07:51:07.570Z,8.64
2022-09-23T07:53:34.026Z,8.50
2022-09-23T07:56:00.644Z,8.76
2022-09-23T07:58:27.032Z,8.72
2022-09-23T08:00:54.028Z,8.86
2022-09-23T08:03:21.156Z,9.13
2022-09-23T08:05:47.636Z,9.10
2022-09-23T08:08:14.107Z,9.08
2022-09-23T08:10:40.619Z,9.54
2022-09-23T08:13:07.202Z,9.74
2022-09-23T08:15:33.621Z,10.07
2022-09-23T08:18:00.442Z,10.18
2022-09-23T08:20:47.683Z,10.16
2022-09-23T08:23:15.430Z,10.33
2022-09-23T08:25:45.216Z,11.22
2022-09-23T08:28:18.540Z,10.72
2022-09-23T08:30:48.710Z,10.68
2022-09-23T08:33:19.643Z,10.75
2022-09-23T08:35:49.396Z,11.05
2022-09-23T08:38:16.074Z,11.13
2022-09-23T08:40:47.303Z,11.36
2022-09-23T08:43:32.606Z,11.72
2022-09-23T08:46:06.333Z,11.78
2022-09-23T08:48:42.251Z,11.57
2022-09-23T08:51:14.654Z,12.26
2022-09-23T08:53:42.225Z,12.24
2022-09-23T08:56:15.985Z,12.43
2022-09-23T08:59:11.822Z,12.18
2022-09-23T09:01:49.745Z,12.26
2022-09-23T09:04:28.456Z,12.45
2022-09-23T09:10:18.573Z,12.82
2022-09-23T09:13:03.112Z,12.93
2022-09-23T09:15:29.685Z,13.46
2022-09-23T09:18:25.345Z,13.22
2022-09-23T09:21:05.252Z,13.56
2022-09-23T09:23:45.283Z,13.61
2022-09-23T09:26:22.298Z,13.38
2022-09-23T09:29:17.258Z,13.73
2022-09-23T09:31:50.680Z,13.91
2022-09-23T09:34:34.534Z,13.63
2022-09-23T09:37:13.701Z,14.01
2022-09-23T09:39:40.765Z,13.97
2022-09-23T09:42:07.509Z,13.97
2022-09-23T09:44:40.496Z,14.15
2022-09-23T09:47:46.653Z,14.38
2022-09-23T09:50:21.634Z,14.53
2022-09-23T09:52:48.684Z,14.37
2022-09-23T09:55:17.630Z,14.53
2022-09-23T09:57:49.217Z,14.24
2022-09-23T10:00:21.502Z,14.30
2022-09-23T10:02:59.005Z,14.16
2022-09-23T10:05:30.127Z,14.34
2022-09-23T10:07:56.709Z,14.76
2022-09-23T10:10:32.764Z,14.99
2022-09-23T10:13:15.037Z,14.39
2022-09-23T10:32:33.651Z,14.94
2022-09-23T10:35:03.346Z,15.37
2022-09-23T10:37:43.755Z,15.19
2022-09-23T10:40:35.895Z,15.31
2022-09-23T10:43:46.096Z,15.23
2022-09-23T10:46:41.666Z,15.50
2022-09-23T10:49:20.820Z,15.37
2022-09-23T10:52:06.949Z,15.44
2022-09-23T10:54:49.450Z,15.79
2022-09-23T10:57:34.690Z,15.71
2022-09-23T11:00:10.432Z,15.84
2022-09-23T11:02:49.123Z,15.90
2022-09-23T11:05:15.669Z,16.23
2022-09-23T11:07:57.151Z,16.10
2022-09-23T11:10:49.740Z,15.46
2022-09-23T11:13:32.587Z,16.64
2022-09-23T11:16:17.395Z,16.22
2022-09-23T11:19:32.290Z,16.49
2022-09-23T11:22:28.107Z,16.12
2022-09-23T11:25:17.167Z,16.39
2022-09-23T11:28:17.998Z,16.70
2022-09-23T11:31:00.194Z,16.39
2022-09-23T11:33:45.428Z,16.44
2022-09-23T11:36:40.143Z,17.33
2022-09-23T11:39:33.217Z,16.83
2022-09-23T11:42:02.858Z,16.77
2022-09-23T11:44:35.581Z,16.87
2022-09-23T11:47:08.649Z,17.16
2022-09-23T11:49:53.563Z,17.30
2022-09-23T11:52:43.844Z,17.31
2022-09-23T11:55:35.934Z,16.76
2022-09-23T11:58:21.961Z,17.00
2022-09-23T12:01:01.549Z,16.80
2022-09-23T12:03:49.583Z,16.83
2022-09-23T12:06:22.910Z,16.83
2022-09-23T12:08:57.523Z,17.11
2022-09-23T12:11:42.079Z,17.65
2022-09-23T12:14:14.500Z,17.37
2022-09-23T12:17:02.760Z,17.09
2022-09-23T12:19:38.581Z,17.10
2022-09-23T12:22:08.147Z,16.78
2022-09-23T12:24:54.250Z,17.00
2022-09-23T12:27:32.304Z,17.03
2022-09-23T12:30:05.420Z,17.17
2022-09-23T12:32:32.619Z,17.15
2022-09-23T12:35:00.542Z,17.05
2022-09-23T12:37:36.129Z,16.75
2022-09-23T12:40:16.477Z,17.10
2022-09-23T12:42:46.355Z,16.76
2022-09-23T12:45:32.004Z,17.04
2022-09-23T12:48:03.184Z,17.47
2022-09-23T12:50:56.979Z,17.46
2022-09-23T12:53:35.502Z,17.42
2022-09-23T12:56:20.720Z,17.60
2022-09-23T12:58:47.195Z,17.17
2022-09-23T13:01:23.066Z,17.13
2022-09-23T13:04:10.744Z,17.30
2022-09-23T13:06:40.129Z,16.94
2022-09-23T13:09:17.868Z,16.79
2022-09-23T13:11:47.930Z,16.90
2022-09-23T13:14:27.265Z,17.08
2022-09-23T13:16:56.083Z,16.84
2022-09-23T13:19:25.701Z,16.86
2022-09-23T13:21:59.619Z,16.87
2022-09-23T13:24:28.880Z,16.70
2022-09-23T13:27:06.522Z,16.47
2022-09-23T13:29:42.281Z,16.64
2022-09-23T13:32:15.095Z,16.95
2022-09-23T13:34:44.301Z,16.96
2022-09-23T13:37:22.385Z,17.13
2022-09-23T13:39:50.026Z,17.26
2022-09-23T13:42:29.036Z,16.92
2022-09-23T13:44:58.979Z,17.12
2022-09-23T13:47:29.530Z,17.02
2022-09-23T13:49:56.887Z,16.51
2022-09-23T13:52:29.933Z,16.78
2022-09-23T13:54:57.054Z,16.89
2022-09-23T13:57:27.887Z,17.07
2022-09-23T13:59:54.650Z,16.97
2022-09-23T14:02:25.599Z,16.94
2022-09-23T14:04:52.774Z,16.93
2022-09-23T14:07:19.832Z,16.94
2022-09-23T14:09:49.663Z,16.56
2022-09-23T14:12:22.048Z,16.86
2022-09-23T14:14:50.983Z,16.88
2022-09-23T14:17:21.493Z,16.76
2022-09-23T14:19:48.517Z,16.68
2022-09-23T14:22:29.114Z,16.21
2022-09-23T14:24:57.266Z,16.43
2022-09-23T14:27:31.214Z,16.37
2022-09-23T14:29:58.876Z,16.36
2022-09-23T14:32:28.505Z,16.21
2022-09-23T14:35:04.412Z,16.17
2022-09-23T14:37:55.513Z,16.04
2022-09-23T14:40:27.892Z,15.84
2022-09-23T14:43:16.280Z,15.96
2022-09-23T14:45:50.559Z,15.32
2022-09-23T14:48:22.549Z,14.96
2022-09-23T14:50:52.690Z,15.26
2022-09-23T14:53:22.516Z,14.98
2022-09-23T14:55:52.859Z,14.96
2022-09-23T14:58:23.022Z,14.93
2022-09-23T15:01:00.615Z,14.87
2022-09-23T15:03:28.746Z,14.74
2022-09-23T15:06:00.182Z,14.76
2022-09-23T15:08:28.863Z,15.18
2022-09-23T15:10:55.914Z,15.18
2022-09-23T15:13:28.791Z,14.98
2022-09-23T15:15:56.822Z,14.74
2022-09-23T15:18:29.954Z,14.64
2022-09-23T15:21:18.999Z,14.72
2022-09-23T15:23:45.445Z,14.61
2022-09-23T15:26:23.736Z,14.50
2022-09-23T15:28:53.602Z,14.48
2022-09-23T15:31:25.559Z,14.42
2022-09-23T15:33:52.477Z,14.18
2022-09-23T15:36:25.860Z,14.28
2022-09-23T15:38:53.187Z,14.08
2022-09-23T15:41:19.710Z,13.92
2022-09-23T15:43:47.037Z,13.76
2022-09-23T15:46:25.850Z,13.80
2022-09-23T15:49:22.255Z,13.81
2022-09-23T15:51:51.950Z,13.72
2022-09-23T15:54:19.443Z,13.46
2022-09-23T15:56:45.950Z,13.60
2022-09-23T15:59:12.781Z,13.31
2022-09-23T16:01:39.463Z,13.21
2022-09-23T16:04:06.165Z,13.01
2022-09-23T16:06:35.983Z,13.12
2022-09-23T16:09:02.625Z,13.06
2022-09-23T16:11:31.756Z,12.96
2022-09-23T16:14:01.282Z,12.94
2022-09-23T16:16:28.177Z,12.69
2022-09-23T16:18:55.197Z,12.67
2022-09-23T16:21:24.906Z,12.61
2022-09-23T16:23:53.309Z,12.44
2022-09-23T16:26:34.854Z,12.51
2022-09-23T16:29:02.267Z,12.36
2022-09-23T16:31:32.272Z,12.18
2022-09-23T16:34:02.331Z,12.06
2022-09-23T16:36:40.527Z,12.03
2022-09-23T16:39:09.852Z,11.93
2022-09-23T16:41:36.442Z,11.73
2022-09-23T16:44:04.644Z,11.65
2022-09-23T16:46:31.463Z,11.65
2022-09-23T16:48:58.640Z,11.47
2022-09-23T16:51:38.156Z,11.48
2022-09-23T16:54:10.177Z,11.35
2022-09-23T16:56:40.337Z,11.25
2022-09-23T16:59:06.855Z,11.16
2022-09-23T17:01:52.109Z,11.16
2022-09-23T17:04:19.536Z,10.97
2022-09-23T17:06:50.085Z,10.92
2022-09-23T17:09:18.784Z,10.75
2022-09-23T17:11:47.763Z,10.76
2022-09-23T17:14:15.590Z,10.73
2022-09-23T17:16:42.496Z,10.66
2022-09-23T17:19:11.488Z,10.53
2022-09-23T17:21:38.172Z,10.51
2022-09-23T17:24:05.211Z,10.40
2022-09-23T17:26:31.698Z,10.35
2022-09-23T17:28:59.570Z,10.32
2022-09-23T17:31:26.201Z,10.22
2022-09-23T17:33:53.120Z,10.16
2022-09-23T17:36:20.685Z,10.18
2022-09-23T17:38:48.333Z,10.13
2022-09-23T17:41:15.970Z,10.13
2022-09-23T17:43:42.399Z,10.09
2022-09-23T17:46:12.753Z,9.98
2022-09-23T17:48:41.293Z,9.93
2022-09-23T17:51:12.266Z,9.95
2022-09-23T17:53:40.089Z,9.92
2022-09-23T17:56:18.163Z,9.85
2022-09-23T17:58:46.030Z,9.72
2022-09-23T18:01:35.480Z,9.75
2022-09-23T18:04:05.464Z,9.74
2022-09-23T18:06:35.586Z,9.76
2022-09-23T18:09:05.059Z,9.73
2022-09-23T18:11:34.691Z,9.71
2022-09-23T18:14:04.331Z,9.64
2022-09-23T18:16:35.114Z,9.58
2022-09-23T18:19:03.730Z,9.62
2022-09-23T18:21:35.852Z,9.65
2022-09-23T18:26:50.232Z,9.53
2022-09-23T18:29:17.252Z,9.46
2022-09-23T18:31:45.015Z,9.43
2022-09-23T18:34:14.148Z,9.46
2022-09-23T18:36:40.684Z,9.41
2022-09-23T18:39:07.182Z,9.47
2022-09-23T18:41:35.029Z,9.42
2022-09-23T18:44:01.791Z,9.35
2022-09-23T18:46:29.727Z,9.33
2022-09-23T18:49:15.899Z,9.31
2022-09-23T18:51:51.764Z,9.34
2022-09-23T18:54:19.367Z,9.33
2022-09-23T18:56:46.450Z,9.40
2022-09-23T18:59:16.549Z,9.37
2022-09-23T19:01:45.736Z,9.39
2022-09-23T19:04:14.103Z,9.36
2022-09-23T19:06:40.631Z,9.33
2022-09-23T19:09:07.663Z,9.22
2022-09-23T19:11:36.262Z,9.27
2022-09-23T19:14:05.793Z,9.30
2022-09-23T19:16:33.312Z,9.28
2022-09-23T19:18:59.937Z,9.28
2022-09-23T19:21:28.748Z,9.28
2022-09-23T19:24:03.377Z,9.20
2022-09-23T19:26:39.456Z,9.21
2022-09-23T19:29:08.329Z,9.12
2022-09-23T19:31:39.919Z,9.08
2022-09-23T19:34:11.460Z,9.02
2022-09-23T19:36:40.442Z,9.06
2022-09-23T19:39:11.993Z,8.92
2022-09-23T19:41:38.566Z,8.84
2022-09-23T19:44:07.340Z,8.87
2022-09-23T19:46:39.556Z,8.82
2022-09-23T19:49:07.696Z,8.77
2022-09-23T19:51:34.943Z,8.68
2022-09-23T19:54:03.412Z,8.72
2022-09-23T19:56:31.847Z,8.62
2022-09-23T19:58:58.724Z,8.64
2022-09-23T20:01:27.227Z,8.56
2022-09-23T20:03:53.872Z,8.58
2022-09-23T20:06:20.599Z,8.49
2022-09-23T20:08:47.904Z,8.46
2022-09-23T20:11:17.287Z,8.45
2022-09-23T20:13:48.547Z,8.47
2022-09-23T20:16:17.978Z,8.51
2022-09-23T20:18:46.124Z,8.49
2022-09-23T20:21:15.290Z,8.50
2022-09-23T20:23:42.244Z,8.42
2022-09-23T20:26:28.080Z,8.42
2022-09-23T20:28:55.000Z,8.40
2022-09-23T20:31:22.890Z,8.40
2022-09-23T20:33:58.264Z,8.33
2022-09-23T20:36:26.332Z,8.38
2022-09-23T20:38:56.907Z,8.34
2022-09-23T20:41:23.651Z,8.30
2022-09-23T20:43:54.226Z,8.33
2022-09-23T20:46:24.212Z,8.30
2022-09-23T20:48:50.771Z,8.32
2022-09-23T20:51:17.792Z,8.27
2022-09-23T20:53:44.435Z,8.34
2022-09-23T20:56:10.791Z,8.34
2022-09-23T20:58:37.293Z,8.34
2022-09-23T21:01:14.465Z,8.39
2022-09-23T21:03:43.694Z,8.37
2022-09-23T21:06:11.465Z,8.35
2022-09-23T21:08:37.974Z,8.36
2022-09-23T21:11:08.131Z,8.38
2022-09-23T21:13:34.706Z,8.17
2022-09-23T21:16:05.323Z,8.29
2022-09-23T21:18:32.079Z,8.21
2022-09-23T21:20:59.882Z,8.15
2022-09-23T21:23:28.523Z,8.15
2022-09-23T21:26:12.025Z,8.11
2022-09-23T21:28:40.433Z,8.05
2022-09-23T21:31:09.368Z,8.03
2022-09-23T21:33:37.392Z,8.02
2022-09-23T21:36:06.246Z,7.94
2022-09-23T21:38:37.055Z,7.97
2022-09-23T21:41:06.502Z,8.01
2022-09-23T21:43:35.007Z,8.00
2022-09-23T21:46:03.731Z,8.01
2022-09-23T21:48:32.046Z,8.03
2022-09-23T21:51:01.062Z,7.98
2022-09-23T21:53:29.660Z,8.03
2022-09-23T21:56:11.518Z,8.06
2022-09-23T21:58:39.351Z,8.05
2022-09-23T22:17:23.695Z,7.69
2022-09-23T22:19:50.878Z,7.76
2022-09-23T22:22:18.649Z,7.82
2022-09-23T22:24:47.038Z,7.87
2022-09-23T22:27:15.644Z,7.84
2022-09-23T22:30:00.946Z,7.78
2022-09-23T22:32:43.301Z,7.82
2022-09-23T22:35:17.915Z,7.91
2022-09-23T22:37:45.288Z,7.90
2022-09-23T22:40:14.479Z,7.90
2022-09-23T22:42:42.253Z,7.88
2022-09-23T22:45:10.312Z,7.92
2022-09-23T22:47:38.605Z,7.88
2022-09-23T22:50:06.957Z,7.90
2022-09-23T22:52:34.795Z,7.88
2022-09-23T22:55:02.284Z,7.84
2022-09-23T22:57:28.810Z,7.86
2022-09-23T22:59:55.244Z,7.88
2022-09-23T23:02:23.619Z,7.86
2022-09-23T23:04:50.390Z,7.83
2022-09-23T23:07:23.018Z,7.84
2022-09-23T23:09:50.538Z,7.80
2022-09-23T23:12:20.044Z,7.79
2022-09-23T23:14:47.517Z,7.80
2022-09-23T23:17:14.148Z,7.80
2022-09-23T23:19:40.540Z,7.82
2022-09-23T23:22:07.016Z,7.78
2022-09-23T23:24:33.488Z,7.83
2022-09-23T23:27:00.023Z,7.81
2022-09-23T23:29:27.777Z,7.86
2022-09-23T23:31:54.608Z,7.82
2022-09-23T23:34:22.246Z,7.78
2022-09-23T23:36:54.470Z,7.71
2022-09-23T23:39:26.020Z,7.73
2022-09-23T23:41:55.137Z,7.80
2022-09-23T23:44:23.799Z,7.79
2022-09-23T23:46:50.991Z,7.78
2022-09-23T23:49:17.580Z,7.78
2022-09-23T23:51:44.160Z,7.70
2022-09-23T23:54:11.536Z,7.74
2022-09-23T23:56:38.039Z,7.66
2022-09-23T23:59:04.556Z,7.73
